sensor_id;sensor_type;location;lat;lon;timestamp;P1;durP1;ratioP1;P2;durP2;ratioP2
47599;SDS011;33323;52.124;6.018;2023-04-03T00:01:07;1.17;;;0.98;;
47599;SDS011;33323;52.124;6.018;2023-04-03T00:03:35;1.38;;;0.75;;
47599;SDS011;33323;52.124;6.018;2023-04-03T00:06:03;2.42;;;1.08;;
47599;SDS011;33323;52.124;6.018;2023-04-03T00:08:37;2.30;;;1.38;;
47599;SDS011;33323;52.124;6.018;2023-04-03T00:11:04;3.25;;;0.80;;
47599;SDS011;33323;52.124;6.018;2023-04-03T00:13:32;2.80;;;1.02;;
47599;SDS011;33323;52.124;6.018;2023-04-03T00:16:00;4.13;;;0.77;;
47599;SDS011;33323;52.124;6.018;2023-04-03T00:18:27;2.40;;;1.58;;
47599;SDS011;33323;52.124;6.018;2023-04-03T00:20:54;2.22;;;1.10;;
47599;SDS011;33323;52.124;6.018;2023-04-03T00:23:21;2.13;;;0.73;;
47599;SDS011;33323;52.124;6.018;2023-04-03T00:25:50;2.53;;;0.93;;
47599;SDS011;33323;52.124;6.018;2023-04-03T00:28:18;1.23;;;0.80;;
47599;SDS011;33323;52.124;6.018;2023-04-03T00:30:48;2.75;;;1.23;;
47599;SDS011;33323;52.124;6.018;2023-04-03T00:33:16;1.77;;;1.20;;
47599;SDS011;33323;52.124;6.018;2023-04-03T00:35:43;2.53;;;1.40;;
47599;SDS011;33323;52.124;6.018;2023-04-03T00:38:10;1.50;;;0.80;;
47599;SDS011;33323;52.124;6.018;2023-04-03T00:40:39;1.33;;;0.90;;
47599;SDS011;33323;52.124;6.018;2023-04-03T00:43:11;2.00;;;0.93;;
47599;SDS011;33323;52.124;6.018;2023-04-03T00:45:48;1.75;;;0.85;;
47599;SDS011;33323;52.124;6.018;2023-04-03T00:48:22;2.13;;;0.68;;
47599;SDS011;33323;52.124;6.018;2023-04-03T00:50:56;2.88;;;0.73;;
47599;SDS011;33323;52.124;6.018;2023-04-03T00:53:25;3.05;;;1.10;;
47599;SDS011;33323;52.124;6.018;2023-04-03T00:55:58;1.10;;;0.70;;
47599;SDS011;33323;52.124;6.018;2023-04-03T00:58:33;1.55;;;0.73;;
47599;SDS011;33323;52.124;6.018;2023-04-03T01:01:07;1.27;;;0.88;;
47599;SDS011;33323;52.124;6.018;2023-04-03T01:03:39;2.08;;;0.80;;
47599;SDS011;33323;52.124;6.018;2023-04-03T01:06:07;1.92;;;1.27;;
47599;SDS011;33323;52.124;6.018;2023-04-03T01:08:34;2.85;;;1.00;;
47599;SDS011;33323;52.124;6.018;2023-04-03T01:11:02;3.47;;;0.77;;
47599;SDS011;33323;52.124;6.018;2023-04-03T01:13:31;1.70;;;0.82;;
47599;SDS011;33323;52.124;6.018;2023-04-03T01:16:03;1.85;;;0.95;;
47599;SDS011;33323;52.124;6.018;2023-04-03T01:18:32;1.95;;;0.70;;
47599;SDS011;33323;52.124;6.018;2023-04-03T01:21:10;1.70;;;1.02;;
47599;SDS011;33323;52.124;6.018;2023-04-03T01:26:33;4.10;;;1.90;;
47599;SDS011;33323;52.124;6.018;2023-04-03T01:29:02;1.55;;;0.90;;
47599;SDS011;33323;52.124;6.018;2023-04-03T01:34:30;2.63;;;1.02;;
47599;SDS011;33323;52.124;6.018;2023-04-03T01:36:58;2.33;;;0.82;;
47599;SDS011;33323;52.124;6.018;2023-04-03T01:39:26;2.85;;;1.17;;
47599;SDS011;33323;52.124;6.018;2023-04-03T01:41:53;2.00;;;1.17;;
47599;SDS011;33323;52.124;6.018;2023-04-03T01:44:30;2.17;;;0.93;;
47599;SDS011;33323;52.124;6.018;2023-04-03T01:46:57;3.40;;;1.00;;
47599;SDS011;33323;52.124;6.018;2023-04-03T01:49:26;1.33;;;0.80;;
47599;SDS011;33323;52.124;6.018;2023-04-03T01:51:54;2.60;;;0.90;;
47599;SDS011;33323;52.124;6.018;2023-04-03T01:54:21;7.50;;;1.70;;
47599;SDS011;33323;52.124;6.018;2023-04-03T01:56:48;1.20;;;0.77;;
47599;SDS011;33323;52.124;6.018;2023-04-03T01:59:17;1.27;;;0.80;;
47599;SDS011;33323;52.124;6.018;2023-04-03T02:01:45;4.75;;;1.45;;
47599;SDS011;33323;52.124;6.018;2023-04-03T02:04:12;1.83;;;0.80;;
47599;SDS011;33323;52.124;6.018;2023-04-03T02:06:40;1.38;;;0.75;;
47599;SDS011;33323;52.124;6.018;2023-04-03T02:09:07;5.75;;;0.93;;
47599;SDS011;33323;52.124;6.018;2023-04-03T02:11:34;1.42;;;1.08;;
47599;SDS011;33323;52.124;6.018;2023-04-03T02:14:01;1.88;;;0.77;;
47599;SDS011;33323;52.124;6.018;2023-04-03T02:16:28;4.88;;;1.00;;
47599;SDS011;33323;52.124;6.018;2023-04-03T02:18:55;1.95;;;0.80;;
47599;SDS011;33323;52.124;6.018;2023-04-03T02:21:23;1.17;;;0.60;;
47599;SDS011;33323;52.124;6.018;2023-04-03T02:23:50;1.95;;;1.00;;
47599;SDS011;33323;52.124;6.018;2023-04-03T02:26:17;1.90;;;1.00;;
47599;SDS011;33323;52.124;6.018;2023-04-03T02:28:45;0.70;;;0.50;;
47599;SDS011;33323;52.124;6.018;2023-04-03T02:31:12;1.92;;;1.30;;
47599;SDS011;33323;52.124;6.018;2023-04-03T02:33:41;1.80;;;0.80;;
47599;SDS011;33323;52.124;6.018;2023-04-03T02:36:11;1.35;;;0.70;;
47599;SDS011;33323;52.124;6.018;2023-04-03T02:38:41;2.80;;;1.10;;
47599;SDS011;33323;52.124;6.018;2023-04-03T02:41:10;4.03;;;0.90;;
47599;SDS011;33323;52.124;6.018;2023-04-03T02:43:38;4.32;;;1.00;;
47599;SDS011;33323;52.124;6.018;2023-04-03T02:46:06;2.33;;;1.23;;
47599;SDS011;33323;52.124;6.018;2023-04-03T02:48:34;2.47;;;0.98;;
47599;SDS011;33323;52.124;6.018;2023-04-03T02:51:01;5.13;;;1.08;;
47599;SDS011;33323;52.124;6.018;2023-04-03T02:53:28;0.98;;;0.65;;
47599;SDS011;33323;52.124;6.018;2023-04-03T02:55:57;2.33;;;1.02;;
47599;SDS011;33323;52.124;6.018;2023-04-03T02:58:24;1.13;;;0.82;;
47599;SDS011;33323;52.124;6.018;2023-04-03T03:00:55;2.17;;;0.70;;
47599;SDS011;33323;52.124;6.018;2023-04-03T03:03:22;3.17;;;1.27;;
47599;SDS011;33323;52.124;6.018;2023-04-03T03:05:49;1.88;;;0.95;;
47599;SDS011;33323;52.124;6.018;2023-04-03T03:08:16;3.55;;;1.67;;
47599;SDS011;33323;52.124;6.018;2023-04-03T03:10:46;1.58;;;0.93;;
47599;SDS011;33323;52.124;6.018;2023-04-03T03:13:13;1.55;;;0.75;;
47599;SDS011;33323;52.124;6.018;2023-04-03T03:15:40;2.95;;;1.00;;
47599;SDS011;33323;52.124;6.018;2023-04-03T03:18:07;1.38;;;1.00;;
47599;SDS011;33323;52.124;6.018;2023-04-03T03:20:34;1.17;;;1.05;;
47599;SDS011;33323;52.124;6.018;2023-04-03T03:23:02;2.15;;;1.23;;
47599;SDS011;33323;52.124;6.018;2023-04-03T03:25:29;3.80;;;1.23;;
47599;SDS011;33323;52.124;6.018;2023-04-03T03:27:56;3.80;;;1.10;;
47599;SDS011;33323;52.124;6.018;2023-04-03T03:30:23;3.38;;;1.52;;
47599;SDS011;33323;52.124;6.018;2023-04-03T03:32:50;2.28;;;1.15;;
47599;SDS011;33323;52.124;6.018;2023-04-03T03:35:18;2.63;;;0.95;;
47599;SDS011;33323;52.124;6.018;2023-04-03T03:37:46;1.02;;;0.70;;
47599;SDS011;33323;52.124;6.018;2023-04-03T03:40:14;2.00;;;1.05;;
47599;SDS011;33323;52.124;6.018;2023-04-03T03:42:43;1.80;;;0.95;;
47599;SDS011;33323;52.124;6.018;2023-04-03T03:45:10;2.63;;;0.98;;
47599;SDS011;33323;52.124;6.018;2023-04-03T03:47:37;3.35;;;1.30;;
47599;SDS011;33323;52.124;6.018;2023-04-03T03:50:04;6.72;;;1.50;;
47599;SDS011;33323;52.124;6.018;2023-04-03T03:52:32;1.92;;;1.13;;
47599;SDS011;33323;52.124;6.018;2023-04-03T03:54:59;1.88;;;1.08;;
47599;SDS011;33323;52.124;6.018;2023-04-03T03:57:27;1.27;;;1.00;;
47599;SDS011;33323;52.124;6.018;2023-04-03T03:59:55;1.23;;;0.95;;
47599;SDS011;33323;52.124;6.018;2023-04-03T04:02:22;2.15;;;1.05;;
47599;SDS011;33323;52.124;6.018;2023-04-03T04:04:51;1.92;;;1.20;;
47599;SDS011;33323;52.124;6.018;2023-04-03T04:07:19;3.58;;;1.20;;
47599;SDS011;33323;52.124;6.018;2023-04-03T04:09:46;2.30;;;1.40;;
47599;SDS011;33323;52.124;6.018;2023-04-03T04:12:13;1.50;;;0.95;;
47599;SDS011;33323;52.124;6.018;2023-04-03T04:14:40;2.33;;;0.88;;
47599;SDS011;33323;52.124;6.018;2023-04-03T04:17:08;4.53;;;0.90;;
47599;SDS011;33323;52.124;6.018;2023-04-03T04:19:36;1.20;;;0.95;;
47599;SDS011;33323;52.124;6.018;2023-04-03T04:22:03;2.50;;;1.33;;
47599;SDS011;33323;52.124;6.018;2023-04-03T04:24:31;2.83;;;0.95;;
47599;SDS011;33323;52.124;6.018;2023-04-03T04:27:01;6.35;;;1.70;;
47599;SDS011;33323;52.124;6.018;2023-04-03T04:29:29;2.85;;;0.95;;
47599;SDS011;33323;52.124;6.018;2023-04-03T04:32:02;2.28;;;1.00;;
47599;SDS011;33323;52.124;6.018;2023-04-03T04:34:30;2.00;;;1.17;;
47599;SDS011;33323;52.124;6.018;2023-04-03T04:36:58;3.90;;;1.10;;
47599;SDS011;33323;52.124;6.018;2023-04-03T04:39:26;4.90;;;1.00;;
47599;SDS011;33323;52.124;6.018;2023-04-03T04:41:55;2.35;;;1.00;;
47599;SDS011;33323;52.124;6.018;2023-04-03T04:44:25;4.72;;;1.10;;
47599;SDS011;33323;52.124;6.018;2023-04-03T04:46:52;2.92;;;1.20;;
47599;SDS011;33323;52.124;6.018;2023-04-03T04:49:20;2.97;;;1.70;;
47599;SDS011;33323;52.124;6.018;2023-04-03T04:51:47;2.47;;;1.05;;
47599;SDS011;33323;52.124;6.018;2023-04-03T04:54:22;4.00;;;1.75;;
47599;SDS011;33323;52.124;6.018;2023-04-03T04:56:50;2.47;;;1.50;;
47599;SDS011;33323;52.124;6.018;2023-04-03T04:59:18;2.78;;;1.55;;
47599;SDS011;33323;52.124;6.018;2023-04-03T05:01:48;8.23;;;3.10;;
47599;SDS011;33323;52.124;6.018;2023-04-03T05:04:16;1.50;;;1.00;;
47599;SDS011;33323;52.124;6.018;2023-04-03T05:06:47;2.00;;;1.10;;
47599;SDS011;33323;52.124;6.018;2023-04-03T05:09:18;4.53;;;1.40;;
47599;SDS011;33323;52.124;6.018;2023-04-03T05:11:47;4.55;;;1.60;;
47599;SDS011;33323;52.124;6.018;2023-04-03T05:14:17;10.90;;;1.58;;
47599;SDS011;33323;52.124;6.018;2023-04-03T05:16:45;2.28;;;1.08;;
47599;SDS011;33323;52.124;6.018;2023-04-03T05:19:12;3.88;;;1.58;;
47599;SDS011;33323;52.124;6.018;2023-04-03T05:21:40;3.28;;;1.30;;
47599;SDS011;33323;52.124;6.018;2023-04-03T05:24:11;4.40;;;1.33;;
47599;SDS011;33323;52.124;6.018;2023-04-03T05:26:42;16.77;;;1.92;;
47599;SDS011;33323;52.124;6.018;2023-04-03T05:29:11;7.80;;;1.63;;
47599;SDS011;33323;52.124;6.018;2023-04-03T05:31:39;1.60;;;1.20;;
47599;SDS011;33323;52.124;6.018;2023-04-03T05:34:08;2.20;;;1.30;;
47599;SDS011;33323;52.124;6.018;2023-04-03T05:36:37;3.45;;;1.10;;
47599;SDS011;33323;52.124;6.018;2023-04-03T05:39:06;5.20;;;1.85;;
47599;SDS011;33323;52.124;6.018;2023-04-03T05:41:37;4.13;;;1.67;;
47599;SDS011;33323;52.124;6.018;2023-04-03T05:44:04;2.85;;;1.73;;
47599;SDS011;33323;52.124;6.018;2023-04-03T05:46:32;5.80;;;2.53;;
47599;SDS011;33323;52.124;6.018;2023-04-03T05:49:05;7.40;;;2.72;;
47599;SDS011;33323;52.124;6.018;2023-04-03T05:51:35;5.28;;;1.80;;
47599;SDS011;33323;52.124;6.018;2023-04-03T05:56:46;5.50;;;2.60;;
47599;SDS011;33323;52.124;6.018;2023-04-03T05:59:14;4.53;;;1.95;;
47599;SDS011;33323;52.124;6.018;2023-04-03T06:01:41;5.63;;;1.58;;
47599;SDS011;33323;52.124;6.018;2023-04-03T06:04:08;5.55;;;1.60;;
47599;SDS011;33323;52.124;6.018;2023-04-03T06:06:47;4.32;;;1.52;;
47599;SDS011;33323;52.124;6.018;2023-04-03T06:09:25;3.58;;;2.05;;
47599;SDS011;33323;52.124;6.018;2023-04-03T06:11:55;4.72;;;1.55;;
47599;SDS011;33323;52.124;6.018;2023-04-03T06:14:26;5.50;;;1.33;;
47599;SDS011;33323;52.124;6.018;2023-04-03T06:16:54;2.05;;;0.95;;
47599;SDS011;33323;52.124;6.018;2023-04-03T06:19:21;4.38;;;1.27;;
47599;SDS011;33323;52.124;6.018;2023-04-03T06:21:53;4.35;;;1.10;;
47599;SDS011;33323;52.124;6.018;2023-04-03T06:24:20;7.25;;;1.20;;
47599;SDS011;33323;52.124;6.018;2023-04-03T06:26:50;5.32;;;1.38;;
47599;SDS011;33323;52.124;6.018;2023-04-03T06:29:19;5.18;;;1.77;;
47599;SDS011;33323;52.124;6.018;2023-04-03T06:31:47;2.60;;;1.58;;
47599;SDS011;33323;52.124;6.018;2023-04-03T06:34:15;5.57;;;1.60;;
47599;SDS011;33323;52.124;6.018;2023-04-03T06:36:43;5.22;;;1.40;;
47599;SDS011;33323;52.124;6.018;2023-04-03T06:39:15;7.18;;;2.83;;
47599;SDS011;33323;52.124;6.018;2023-04-03T06:41:46;7.47;;;1.77;;
47599;SDS011;33323;52.124;6.018;2023-04-03T06:44:14;6.85;;;1.52;;
47599;SDS011;33323;52.124;6.018;2023-04-03T06:46:43;6.28;;;1.38;;
47599;SDS011;33323;52.124;6.018;2023-04-03T06:49:12;5.70;;;2.03;;
47599;SDS011;33323;52.124;6.018;2023-04-03T06:51:39;3.03;;;2.33;;
47599;SDS011;33323;52.124;6.018;2023-04-03T06:54:06;1.70;;;1.10;;
47599;SDS011;33323;52.124;6.018;2023-04-03T06:56:34;6.30;;;1.13;;
47599;SDS011;33323;52.124;6.018;2023-04-03T06:59:02;5.38;;;1.58;;
47599;SDS011;33323;52.124;6.018;2023-04-03T07:01:30;5.43;;;1.15;;
47599;SDS011;33323;52.124;6.018;2023-04-03T07:03:57;3.88;;;1.42;;
47599;SDS011;33323;52.124;6.018;2023-04-03T07:06:25;5.68;;;2.00;;
47599;SDS011;33323;52.124;6.018;2023-04-03T07:08:55;6.45;;;1.70;;
47599;SDS011;33323;52.124;6.018;2023-04-03T07:11:22;11.73;;;1.95;;
47599;SDS011;33323;52.124;6.018;2023-04-03T07:13:50;5.05;;;1.60;;
47599;SDS011;33323;52.124;6.018;2023-04-03T07:16:17;3.75;;;1.10;;
47599;SDS011;33323;52.124;6.018;2023-04-03T07:18:45;5.78;;;1.10;;
47599;SDS011;33323;52.124;6.018;2023-04-03T07:21:13;11.13;;;1.25;;
47599;SDS011;33323;52.124;6.018;2023-04-03T07:23:40;4.85;;;1.58;;
47599;SDS011;33323;52.124;6.018;2023-04-03T07:26:07;3.10;;;1.30;;
47599;SDS011;33323;52.124;6.018;2023-04-03T07:28:35;7.07;;;1.50;;
47599;SDS011;33323;52.124;6.018;2023-04-03T07:31:04;5.88;;;1.25;;
47599;SDS011;33323;52.124;6.018;2023-04-03T07:33:35;2.85;;;1.45;;
47599;SDS011;33323;52.124;6.018;2023-04-03T07:36:03;3.85;;;1.60;;
47599;SDS011;33323;52.124;6.018;2023-04-03T07:38:33;2.85;;;1.30;;
47599;SDS011;33323;52.124;6.018;2023-04-03T07:41:02;3.15;;;1.10;;
47599;SDS011;33323;52.124;6.018;2023-04-03T07:43:30;6.30;;;1.35;;
47599;SDS011;33323;52.124;6.018;2023-04-03T07:45:58;4.43;;;1.08;;
47599;SDS011;33323;52.124;6.018;2023-04-03T07:48:25;3.33;;;0.80;;
47599;SDS011;33323;52.124;6.018;2023-04-03T07:50:52;7.40;;;1.05;;
47599;SDS011;33323;52.124;6.018;2023-04-03T07:53:19;6.65;;;1.55;;
47599;SDS011;33323;52.124;6.018;2023-04-03T07:55:47;5.72;;;1.92;;
47599;SDS011;33323;52.124;6.018;2023-04-03T07:58:16;5.47;;;1.30;;
47599;SDS011;33323;52.124;6.018;2023-04-03T08:00:44;5.35;;;1.25;;
47599;SDS011;33323;52.124;6.018;2023-04-03T08:03:12;3.90;;;2.05;;
47599;SDS011;33323;52.124;6.018;2023-04-03T08:05:44;2.63;;;1.13;;
47599;SDS011;33323;52.124;6.018;2023-04-03T08:08:14;3.00;;;0.75;;
47599;SDS011;33323;52.124;6.018;2023-04-03T08:10:50;4.13;;;1.00;;
47599;SDS011;33323;52.124;6.018;2023-04-03T08:13:19;6.25;;;0.82;;
47599;SDS011;33323;52.124;6.018;2023-04-03T08:15:47;4.43;;;1.55;;
47599;SDS011;33323;52.124;6.018;2023-04-03T08:18:14;6.00;;;0.88;;
47599;SDS011;33323;52.124;6.018;2023-04-03T08:20:42;4.50;;;0.80;;
47599;SDS011;33323;52.124;6.018;2023-04-03T08:23:10;2.83;;;0.80;;
47599;SDS011;33323;52.124;6.018;2023-04-03T08:25:38;4.93;;;1.13;;
47599;SDS011;33323;52.124;6.018;2023-04-03T08:28:09;2.80;;;0.63;;
47599;SDS011;33323;52.124;6.018;2023-04-03T08:30:41;3.45;;;0.95;;
47599;SDS011;33323;52.124;6.018;2023-04-03T08:33:09;1.13;;;0.52;;
47599;SDS011;33323;52.124;6.018;2023-04-03T08:35:40;1.30;;;0.80;;
47599;SDS011;33323;52.124;6.018;2023-04-03T08:38:09;1.27;;;0.80;;
47599;SDS011;33323;52.124;6.018;2023-04-03T08:40:36;2.05;;;0.63;;
47599;SDS011;33323;52.124;6.018;2023-04-03T08:43:11;1.30;;;0.60;;
47599;SDS011;33323;52.124;6.018;2023-04-03T08:46:11;2.45;;;0.68;;
47599;SDS011;33323;52.124;6.018;2023-04-03T08:48:42;2.22;;;0.70;;
47599;SDS011;33323;52.124;6.018;2023-04-03T08:51:19;2.50;;;0.60;;
47599;SDS011;33323;52.124;6.018;2023-04-03T08:53:58;1.48;;;0.30;;
47599;SDS011;33323;52.124;6.018;2023-04-03T08:56:32;1.27;;;0.60;;
47599;SDS011;33323;52.124;6.018;2023-04-03T08:59:04;0.82;;;0.40;;
47599;SDS011;33323;52.124;6.018;2023-04-03T09:01:38;1.25;;;0.63;;
47599;SDS011;33323;52.124;6.018;2023-04-03T09:04:16;2.70;;;0.93;;
47599;SDS011;33323;52.124;6.018;2023-04-03T09:06:45;1.88;;;0.50;;
47599;SDS011;33323;52.124;6.018;2023-04-03T09:14:49;0.80;;;0.30;;
47599;SDS011;33323;52.124;6.018;2023-04-03T09:17:24;3.15;;;0.55;;
47599;SDS011;33323;52.124;6.018;2023-04-03T09:23:28;1.67;;;0.57;;
47599;SDS011;33323;52.124;6.018;2023-04-03T09:26:04;0.50;;;0.30;;
47599;SDS011;33323;52.124;6.018;2023-04-03T09:28:38;1.20;;;0.35;;
47599;SDS011;33323;52.124;6.018;2023-04-03T09:31:23;1.85;;;0.20;;
47599;SDS011;33323;52.124;6.018;2023-04-03T09:33:58;3.92;;;0.38;;
47599;SDS011;33323;52.124;6.018;2023-04-03T09:39:14;0.20;;;0.20;;
47599;SDS011;33323;52.124;6.018;2023-04-03T09:44:29;1.17;;;0.30;;
47599;SDS011;33323;52.124;6.018;2023-04-03T09:46:58;0.50;;;0.30;;
47599;SDS011;33323;52.124;6.018;2023-04-03T09:49:45;1.02;;;0.32;;
47599;SDS011;33323;52.124;6.018;2023-04-03T09:52:46;3.95;;;0.35;;
47599;SDS011;33323;52.124;6.018;2023-04-03T09:55:28;7.43;;;0.50;;
47599;SDS011;33323;52.124;6.018;2023-04-03T09:57:59;1.83;;;0.30;;
47599;SDS011;33323;52.124;6.018;2023-04-03T10:00:34;0.63;;;0.30;;
47599;SDS011;33323;52.124;6.018;2023-04-03T10:03:05;0.63;;;0.30;;
47599;SDS011;33323;52.124;6.018;2023-04-03T10:05:50;1.30;;;0.43;;
47599;SDS011;33323;52.124;6.018;2023-04-03T10:08:21;0.68;;;0.52;;
47599;SDS011;33323;52.124;6.018;2023-04-03T10:11:08;1.70;;;0.20;;
47599;SDS011;33323;52.124;6.018;2023-04-03T10:13:52;4.90;;;0.30;;
47599;SDS011;33323;52.124;6.018;2023-04-03T10:19:14;1.20;;;0.30;;
47599;SDS011;33323;52.124;6.018;2023-04-03T10:21:52;1.33;;;0.30;;
47599;SDS011;33323;52.124;6.018;2023-04-03T10:24:54;2.10;;;0.60;;
47599;SDS011;33323;52.124;6.018;2023-04-03T10:27:32;0.80;;;0.30;;
47599;SDS011;33323;52.124;6.018;2023-04-03T10:30:29;3.78;;;0.98;;
47599;SDS011;33323;52.124;6.018;2023-04-03T10:33:20;1.90;;;0.40;;
47599;SDS011;33323;52.124;6.018;2023-04-03T10:36:33;2.30;;;0.30;;
47599;SDS011;33323;52.124;6.018;2023-04-03T10:39:54;2.08;;;0.30;;
47599;SDS011;33323;52.124;6.018;2023-04-03T10:42:50;0.45;;;0.35;;
47599;SDS011;33323;52.124;6.018;2023-04-03T10:46:16;0.50;;;0.28;;
47599;SDS011;33323;52.124;6.018;2023-04-03T10:51:20;2.40;;;0.38;;
47599;SDS011;33323;52.124;6.018;2023-04-03T10:54:24;0.45;;;0.35;;
47599;SDS011;33323;52.124;6.018;2023-04-03T10:57:08;1.65;;;0.40;;
47599;SDS011;33323;52.124;6.018;2023-04-03T10:59:47;1.00;;;0.40;;
47599;SDS011;33323;52.124;6.018;2023-04-03T11:02:59;0.95;;;0.40;;
47599;SDS011;33323;52.124;6.018;2023-04-03T11:11:05;2.10;;;0.32;;
47599;SDS011;33323;52.124;6.018;2023-04-03T11:13:48;3.40;;;0.47;;
47599;SDS011;33323;52.124;6.018;2023-04-03T11:16:26;0.68;;;0.30;;
47599;SDS011;33323;52.124;6.018;2023-04-03T11:19:05;0.77;;;0.47;;
47599;SDS011;33323;52.124;6.018;2023-04-03T11:21:56;1.40;;;0.55;;
47599;SDS011;33323;52.124;6.018;2023-04-03T11:24:32;3.40;;;0.40;;
47599;SDS011;33323;52.124;6.018;2023-04-03T11:27:02;4.25;;;0.43;;
47599;SDS011;33323;52.124;6.018;2023-04-03T11:29:32;1.05;;;0.30;;
47599;SDS011;33323;52.124;6.018;2023-04-03T11:35:33;2.03;;;0.60;;
47599;SDS011;33323;52.124;6.018;2023-04-03T11:38:03;1.67;;;0.65;;
47599;SDS011;33323;52.124;6.018;2023-04-03T11:40:33;1.73;;;0.30;;
47599;SDS011;33323;52.124;6.018;2023-04-03T11:43:04;2.05;;;0.95;;
47599;SDS011;33323;52.124;6.018;2023-04-03T11:50:50;2.28;;;1.15;;
47599;SDS011;33323;52.124;6.018;2023-04-03T11:53:34;2.22;;;0.50;;
47599;SDS011;33323;52.124;6.018;2023-04-03T11:59:25;3.30;;;0.52;;
47599;SDS011;33323;52.124;6.018;2023-04-03T12:01:50;2.83;;;0.50;;
47599;SDS011;33323;52.124;6.018;2023-04-03T12:04:24;1.25;;;0.40;;
47599;SDS011;33323;52.124;6.018;2023-04-03T12:07:16;1.35;;;0.52;;
47599;SDS011;33323;52.124;6.018;2023-04-03T12:15:11;1.00;;;0.50;;
47599;SDS011;33323;52.124;6.018;2023-04-03T12:17:47;0.93;;;0.43;;
47599;SDS011;33323;52.124;6.018;2023-04-03T12:23:55;1.75;;;0.57;;
47599;SDS011;33323;52.124;6.018;2023-04-03T12:26:47;1.42;;;0.40;;
47599;SDS011;33323;52.124;6.018;2023-04-03T12:35:06;1.63;;;0.60;;
47599;SDS011;33323;52.124;6.018;2023-04-03T12:40:53;1.50;;;0.40;;
47599;SDS011;33323;52.124;6.018;2023-04-03T12:46:43;0.88;;;0.60;;
47599;SDS011;33323;52.124;6.018;2023-04-03T12:49:20;4.03;;;0.67;;
47599;SDS011;33323;52.124;6.018;2023-04-03T12:51:55;3.17;;;0.52;;
47599;SDS011;33323;52.124;6.018;2023-04-03T12:54:27;0.47;;;0.30;;
47599;SDS011;33323;52.124;6.018;2023-04-03T12:57:11;3.53;;;0.60;;
47599;SDS011;33323;52.124;6.018;2023-04-03T12:59:41;1.48;;;0.90;;
47599;SDS011;33323;52.124;6.018;2023-04-03T13:04:58;0.80;;;0.40;;
47599;SDS011;33323;52.124;6.018;2023-04-03T13:07:36;2.30;;;0.57;;
47599;SDS011;33323;52.124;6.018;2023-04-03T13:12:44;3.03;;;0.80;;
47599;SDS011;33323;52.124;6.018;2023-04-03T13:15:18;1.40;;;0.50;;
47599;SDS011;33323;52.124;6.018;2023-04-03T13:17:56;1.02;;;0.40;;
47599;SDS011;33323;52.124;6.018;2023-04-03T13:20:25;1.50;;;0.40;;
47599;SDS011;33323;52.124;6.018;2023-04-03T13:22:57;2.28;;;0.77;;
47599;SDS011;33323;52.124;6.018;2023-04-03T13:25:33;1.30;;;0.70;;
47599;SDS011;33323;52.124;6.018;2023-04-03T13:28:10;4.23;;;1.00;;
47599;SDS011;33323;52.124;6.018;2023-04-03T13:30:56;1.85;;;0.75;;
47599;SDS011;33323;52.124;6.018;2023-04-03T13:33:29;1.90;;;0.90;;
47599;SDS011;33323;52.124;6.018;2023-04-03T13:36:08;3.33;;;0.45;;
47599;SDS011;33323;52.124;6.018;2023-04-03T13:38:57;2.05;;;0.60;;
47599;SDS011;33323;52.124;6.018;2023-04-03T13:41:34;2.17;;;0.57;;
47599;SDS011;33323;52.124;6.018;2023-04-03T13:44:15;1.48;;;0.55;;
47599;SDS011;33323;52.124;6.018;2023-04-03T13:46:49;1.88;;;0.82;;
47599;SDS011;33323;52.124;6.018;2023-04-03T13:49:46;1.20;;;0.50;;
47599;SDS011;33323;52.124;6.018;2023-04-03T13:52:52;2.30;;;0.50;;
47599;SDS011;33323;52.124;6.018;2023-04-03T13:55:28;3.03;;;0.60;;
47599;SDS011;33323;52.124;6.018;2023-04-03T13:58:23;2.53;;;0.87;;
47599;SDS011;33323;52.124;6.018;2023-04-03T14:03:46;2.22;;;0.63;;
47599;SDS011;33323;52.124;6.018;2023-04-03T14:06:21;2.15;;;0.77;;
47599;SDS011;33323;52.124;6.018;2023-04-03T14:08:50;3.28;;;1.65;;
47599;SDS011;33323;52.124;6.018;2023-04-03T14:11:22;3.65;;;0.75;;
47599;SDS011;33323;52.124;6.018;2023-04-03T14:13:53;3.03;;;0.60;;
47599;SDS011;33323;52.124;6.018;2023-04-03T14:16:25;2.45;;;0.80;;
47599;SDS011;33323;52.124;6.018;2023-04-03T14:18:56;2.10;;;0.95;;
47599;SDS011;33323;52.124;6.018;2023-04-03T14:21:24;2.38;;;0.82;;
47599;SDS011;33323;52.124;6.018;2023-04-03T14:23:52;3.40;;;1.25;;
47599;SDS011;33323;52.124;6.018;2023-04-03T14:26:20;2.22;;;1.38;;
47599;SDS011;33323;52.124;6.018;2023-04-03T14:28:52;4.15;;;1.55;;
47599;SDS011;33323;52.124;6.018;2023-04-03T14:31:20;1.73;;;0.57;;
47599;SDS011;33323;52.124;6.018;2023-04-03T14:33:48;1.55;;;0.80;;
47599;SDS011;33323;52.124;6.018;2023-04-03T14:36:17;5.18;;;1.60;;
47599;SDS011;33323;52.124;6.018;2023-04-03T14:38:49;2.60;;;0.60;;
47599;SDS011;33323;52.124;6.018;2023-04-03T14:41:19;5.90;;;0.70;;
47599;SDS011;33323;52.124;6.018;2023-04-03T14:43:50;3.60;;;0.90;;
47599;SDS011;33323;52.124;6.018;2023-04-03T14:46:18;2.55;;;0.70;;
47599;SDS011;33323;52.124;6.018;2023-04-03T14:49:15;2.33;;;1.00;;
47599;SDS011;33323;52.124;6.018;2023-04-03T14:51:46;1.67;;;0.70;;
47599;SDS011;33323;52.124;6.018;2023-04-03T14:54:15;1.70;;;0.60;;
47599;SDS011;33323;52.124;6.018;2023-04-03T14:56:52;5.05;;;1.33;;
47599;SDS011;33323;52.124;6.018;2023-04-03T14:59:27;2.40;;;0.70;;
47599;SDS011;33323;52.124;6.018;2023-04-03T15:01:55;3.80;;;0.65;;
47599;SDS011;33323;52.124;6.018;2023-04-03T15:04:25;3.50;;;1.00;;
47599;SDS011;33323;52.124;6.018;2023-04-03T15:06:52;2.20;;;0.95;;
47599;SDS011;33323;52.124;6.018;2023-04-03T15:09:21;1.70;;;0.85;;
47599;SDS011;33323;52.124;6.018;2023-04-03T15:11:51;1.63;;;0.85;;
47599;SDS011;33323;52.124;6.018;2023-04-03T15:14:20;4.28;;;0.95;;
47599;SDS011;33323;52.124;6.018;2023-04-03T15:17:03;2.55;;;0.85;;
47599;SDS011;33323;52.124;6.018;2023-04-03T15:19:36;2.40;;;0.70;;
47599;SDS011;33323;52.124;6.018;2023-04-03T15:22:05;4.35;;;1.17;;
47599;SDS011;33323;52.124;6.018;2023-04-03T15:24:32;1.55;;;1.10;;
47599;SDS011;33323;52.124;6.018;2023-04-03T15:27:00;2.33;;;0.93;;
47599;SDS011;33323;52.124;6.018;2023-04-03T15:29:28;3.40;;;0.85;;
47599;SDS011;33323;52.124;6.018;2023-04-03T15:31:55;4.00;;;0.95;;
47599;SDS011;33323;52.124;6.018;2023-04-03T15:34:22;3.45;;;1.10;;
47599;SDS011;33323;52.124;6.018;2023-04-03T15:36:50;1.42;;;0.82;;
47599;SDS011;33323;52.124;6.018;2023-04-03T15:39:20;3.58;;;0.85;;
47599;SDS011;33323;52.124;6.018;2023-04-03T15:41:49;5.20;;;0.90;;
47599;SDS011;33323;52.124;6.018;2023-04-03T15:44:18;3.75;;;1.05;;
47599;SDS011;33323;52.124;6.018;2023-04-03T15:46:45;2.25;;;0.80;;
47599;SDS011;33323;52.124;6.018;2023-04-03T15:49:15;1.50;;;0.52;;
47599;SDS011;33323;52.124;6.018;2023-04-03T15:51:43;2.30;;;0.82;;
47599;SDS011;33323;52.124;6.018;2023-04-03T15:54:10;3.28;;;1.00;;
47599;SDS011;33323;52.124;6.018;2023-04-03T15:56:37;5.07;;;0.93;;
47599;SDS011;33323;52.124;6.018;2023-04-03T15:59:07;1.42;;;0.95;;
47599;SDS011;33323;52.124;6.018;2023-04-03T16:01:35;2.70;;;0.85;;
47599;SDS011;33323;52.124;6.018;2023-04-03T16:04:03;2.30;;;0.65;;
47599;SDS011;33323;52.124;6.018;2023-04-03T16:06:31;2.05;;;0.68;;
47599;SDS011;33323;52.124;6.018;2023-04-03T16:09:00;1.65;;;0.70;;
47599;SDS011;33323;52.124;6.018;2023-04-03T16:11:27;2.35;;;0.80;;
47599;SDS011;33323;52.124;6.018;2023-04-03T16:13:55;3.33;;;0.68;;
47599;SDS011;33323;52.124;6.018;2023-04-03T16:16:22;2.10;;;0.77;;
47599;SDS011;33323;52.124;6.018;2023-04-03T16:18:53;6.30;;;1.63;;
47599;SDS011;33323;52.124;6.018;2023-04-03T16:21:22;5.03;;;1.48;;
47599;SDS011;33323;52.124;6.018;2023-04-03T16:23:50;4.63;;;1.15;;
47599;SDS011;33323;52.124;6.018;2023-04-03T16:26:17;3.03;;;0.68;;
47599;SDS011;33323;52.124;6.018;2023-04-03T16:28:44;5.43;;;1.50;;
47599;SDS011;33323;52.124;6.018;2023-04-03T16:31:11;1.45;;;0.70;;